createdAt,value
2019-03-21T00:00:18.458Z,3.45
2019-03-21T00:02:46.786Z,3.55
2019-03-21T00:05:16.134Z,3.45
2019-03-21T00:07:45.540Z,3.12
2019-03-21T00:10:30.303Z,2.40
2019-03-21T00:12:58.424Z,2.95
2019-03-21T00:15:30.783Z,2.30
2019-03-21T00:18:00.717Z,1.77
2019-03-21T00:20:28.811Z,2.10
2019-03-21T00:22:56.884Z,1.57
2019-03-21T00:25:25.347Z,2.10
2019-03-21T00:27:53.489Z,1.60
2019-03-21T00:30:23.088Z,2.40
2019-03-21T00:32:52.036Z,2.05
2019-03-21T00:35:20.176Z,1.67
2019-03-21T00:37:48.644Z,1.65
2019-03-21T00:40:18.529Z,2.47
2019-03-21T00:42:47.343Z,2.83
2019-03-21T00:45:16.259Z,4.60
2019-03-21T00:47:45.209Z,4.10
2019-03-21T00:50:14.555Z,3.27
2019-03-21T00:52:42.643Z,2.87
2019-03-21T00:55:11.973Z,4.05
2019-03-21T00:57:40.074Z,5.12
2019-03-21T01:00:09.692Z,3.52
2019-03-21T01:02:37.777Z,2.62
2019-03-21T01:05:08.498Z,3.40
2019-03-21T01:07:36.640Z,3.98
2019-03-21T01:10:09.000Z,2.60
2019-03-21T01:12:37.072Z,4.70
2019-03-21T01:15:06.829Z,3.15
2019-03-21T01:17:34.906Z,3.60
2019-03-21T01:20:04.057Z,2.87
2019-03-21T01:22:32.649Z,3.08
2019-03-21T01:25:05.219Z,2.47
2019-03-21T01:27:31.948Z,2.72
2019-03-21T01:30:00.009Z,3.62
2019-03-21T01:32:28.189Z,2.87
2019-03-21T01:34:56.362Z,4.65
2019-03-21T01:37:24.488Z,3.60
2019-03-21T01:39:52.579Z,3.47
2019-03-21T01:42:20.691Z,5.95
2019-03-21T01:44:48.833Z,3.20
2019-03-21T01:47:16.995Z,4.42
2019-03-21T01:49:45.103Z,5.17
2019-03-21T01:52:13.275Z,4.60
2019-03-21T01:54:41.428Z,3.72
2019-03-21T01:57:09.514Z,3.67
2019-03-21T01:59:38.671Z,3.10
2019-03-21T02:02:07.067Z,2.80
2019-03-21T02:04:35.369Z,2.65
2019-03-21T02:07:03.525Z,2.70
2019-03-21T02:09:31.609Z,5.33
2019-03-21T02:11:59.765Z,4.47
2019-03-21T02:14:29.029Z,5.50
2019-03-21T02:16:57.103Z,4.00
2019-03-21T02:19:25.239Z,6.35
2019-03-21T02:21:53.335Z,6.62
2019-03-21T02:24:21.428Z,5.17
2019-03-21T02:26:49.803Z,4.67
2019-03-21T02:29:17.891Z,4.22
2019-03-21T02:31:45.980Z,3.62
2019-03-21T02:34:14.181Z,3.37
2019-03-21T02:36:42.312Z,2.92
2019-03-21T02:39:10.516Z,2.47
2019-03-21T02:41:38.660Z,3.20
2019-03-21T02:44:07.866Z,2.25
2019-03-21T02:46:35.943Z,2.42
2019-03-21T02:49:04.186Z,2.47
2019-03-21T02:51:32.340Z,2.10
2019-03-21T02:54:00.595Z,2.10
2019-03-21T02:56:28.754Z,3.45
2019-03-21T02:58:56.947Z,3.52
2019-03-21T03:01:25.070Z,4.22
2019-03-21T03:03:53.271Z,3.98
2019-03-21T03:06:22.951Z,3.15
2019-03-21T03:08:51.156Z,2.70
2019-03-21T03:11:20.055Z,2.85
2019-03-21T03:13:49.114Z,3.08
2019-03-21T03:16:17.258Z,2.65
2019-03-21T03:18:45.539Z,3.22
2019-03-21T03:21:13.685Z,3.50
2019-03-21T03:23:43.419Z,2.92
2019-03-21T03:26:11.498Z,2.33
2019-03-21T03:28:43.342Z,2.50
2019-03-21T03:31:11.443Z,2.47
2019-03-21T03:33:39.570Z,2.02
2019-03-21T03:36:07.721Z,1.80
2019-03-21T03:38:35.807Z,2.50
2019-03-21T03:41:05.524Z,2.10
2019-03-21T03:43:33.633Z,2.62
2019-03-21T03:46:01.728Z,2.50
2019-03-21T03:48:29.847Z,2.02
2019-03-21T03:50:57.938Z,2.22
2019-03-21T03:53:26.061Z,1.62
2019-03-21T03:55:54.387Z,2.10
2019-03-21T03:58:26.753Z,1.82
2019-03-21T04:00:55.046Z,2.20
2019-03-21T04:03:23.686Z,1.70
2019-03-21T04:05:51.787Z,1.40
2019-03-21T04:08:19.865Z,1.90
2019-03-21T04:10:48.787Z,2.25
2019-03-21T04:13:16.865Z,2.08
2019-03-21T04:15:52.714Z,2.58
2019-03-21T04:18:17.147Z,1.92
2019-03-21T04:20:46.701Z,1.65
2019-03-21T04:23:16.097Z,2.45
2019-03-21T04:25:45.955Z,1.72
2019-03-21T04:28:15.418Z,1.90
2019-03-21T04:30:44.371Z,2.00
2019-03-21T04:33:12.711Z,1.22
2019-03-21T04:35:40.854Z,1.75
2019-03-21T04:38:08.907Z,1.75
2019-03-21T04:40:37.012Z,2.12
2019-03-21T04:43:05.163Z,2.08
2019-03-21T04:45:33.249Z,2.45
2019-03-21T04:48:01.377Z,2.37
2019-03-21T04:50:30.432Z,3.37
2019-03-21T04:52:58.511Z,4.05
2019-03-21T04:55:26.620Z,2.08
2019-03-21T04:57:55.192Z,2.70
2019-03-21T05:00:33.847Z,2.52
2019-03-21T05:03:15.446Z,1.75
2019-03-21T05:05:43.599Z,2.37
2019-03-21T05:08:11.738Z,2.22
2019-03-21T05:10:39.921Z,2.98
2019-03-21T05:13:08.117Z,2.47
2019-03-21T05:15:37.472Z,2.77
2019-03-21T05:18:07.161Z,2.60
2019-03-21T05:20:35.641Z,2.42
2019-03-21T05:23:03.715Z,4.03
2019-03-21T05:25:33.871Z,2.33
2019-03-21T05:28:01.990Z,1.57
2019-03-21T05:30:34.656Z,2.92
2019-03-21T05:33:04.418Z,2.77
2019-03-21T05:35:32.488Z,2.58
2019-03-21T05:38:00.559Z,2.08
2019-03-21T05:40:28.646Z,1.98
2019-03-21T05:43:04.080Z,5.72
2019-03-21T05:45:32.175Z,5.25
2019-03-21T05:48:01.399Z,3.10
2019-03-21T05:50:29.533Z,3.12
2019-03-21T05:52:58.283Z,2.65
2019-03-21T05:55:26.854Z,2.87
2019-03-21T05:57:55.149Z,1.92
2019-03-21T06:00:24.755Z,2.50
2019-03-21T06:02:52.818Z,2.00
2019-03-21T06:05:22.642Z,3.33
2019-03-21T06:07:52.983Z,2.37
2019-03-21T06:10:21.152Z,1.85
2019-03-21T06:12:49.284Z,2.25
2019-03-21T06:15:21.914Z,2.55
2019-03-21T06:17:55.052Z,2.15
2019-03-21T06:20:33.937Z,3.08
2019-03-21T06:23:03.566Z,2.50
2019-03-21T06:25:48.431Z,1.87
2019-03-21T06:28:16.515Z,2.47
2019-03-21T06:30:46.209Z,2.33
2019-03-21T06:33:23.211Z,3.75
2019-03-21T06:35:51.275Z,2.75
2019-03-21T06:38:19.376Z,3.00
2019-03-21T06:40:47.505Z,3.42
2019-03-21T06:43:15.570Z,3.17
2019-03-21T06:45:47.998Z,4.17
2019-03-21T06:48:13.430Z,3.70
2019-03-21T06:50:41.505Z,2.85
2019-03-21T06:53:10.802Z,2.83
2019-03-21T06:55:38.985Z,3.40
2019-03-21T06:58:07.062Z,2.90
2019-03-21T07:00:35.156Z,2.40
2019-03-21T07:03:04.929Z,2.72
2019-03-21T07:05:33.031Z,2.67
2019-03-21T07:08:02.884Z,3.67
2019-03-21T07:10:32.096Z,3.35
2019-03-21T07:13:00.153Z,3.52
2019-03-21T07:15:28.223Z,5.95
2019-03-21T07:17:56.300Z,4.35
2019-03-21T07:20:24.564Z,4.42
2019-03-21T07:22:52.692Z,4.05
2019-03-21T07:25:20.770Z,3.22
2019-03-21T07:27:48.850Z,3.12
2019-03-21T07:30:17.015Z,4.20
2019-03-21T07:32:45.138Z,4.30
2019-03-21T07:35:13.292Z,3.00
2019-03-21T07:37:41.346Z,3.87
2019-03-21T07:40:10.827Z,4.37
2019-03-21T07:42:39.745Z,3.85
2019-03-21T07:45:09.202Z,3.60
2019-03-21T07:47:38.416Z,4.03
2019-03-21T07:50:09.922Z,3.20
2019-03-21T07:52:38.128Z,3.55
2019-03-21T07:55:06.878Z,3.70
2019-03-21T07:57:35.104Z,3.75
2019-03-21T08:00:04.716Z,4.28
2019-03-21T08:02:32.866Z,4.08
2019-03-21T08:05:00.970Z,3.60
2019-03-21T08:07:29.139Z,4.90
2019-03-21T08:09:57.225Z,9.13
2019-03-21T08:12:25.382Z,4.87
2019-03-21T08:14:53.468Z,5.35
2019-03-21T08:17:21.679Z,6.17
2019-03-21T08:19:49.774Z,6.25
2019-03-21T08:22:17.834Z,7.28
2019-03-21T08:24:46.321Z,6.25
2019-03-21T08:27:14.485Z,8.45
2019-03-21T08:29:42.651Z,5.33
2019-03-21T08:32:10.780Z,4.37
2019-03-21T08:34:38.880Z,7.08
2019-03-21T08:37:06.996Z,5.97
2019-03-21T08:39:35.136Z,5.22
2019-03-21T08:42:03.347Z,4.72
2019-03-21T08:44:31.433Z,4.20
2019-03-21T08:47:00.105Z,6.30
2019-03-21T08:49:29.717Z,4.58
2019-03-21T08:51:59.455Z,4.65
2019-03-21T08:54:27.527Z,4.72
2019-03-21T08:56:55.610Z,5.72
2019-03-21T08:59:23.749Z,5.10
2019-03-21T09:01:51.864Z,7.60
2019-03-21T09:04:19.994Z,9.25
2019-03-21T09:06:48.161Z,7.70
2019-03-21T09:09:16.696Z,10.38
2019-03-21T09:11:45.940Z,12.95
2019-03-21T09:14:14.024Z,17.52
2019-03-21T09:16:42.116Z,14.38
2019-03-21T09:19:10.201Z,11.45
2019-03-21T09:21:38.368Z,12.10
2019-03-21T09:24:06.506Z,12.80
2019-03-21T09:26:34.620Z,15.90
2019-03-21T09:29:03.111Z,17.05
2019-03-21T09:31:31.211Z,16.90
2019-03-21T09:33:59.749Z,14.83
2019-03-21T09:36:27.919Z,16.17
2019-03-21T09:38:56.006Z,16.32
2019-03-21T09:41:24.172Z,13.62
2019-03-21T09:43:52.266Z,8.80
2019-03-21T09:46:20.342Z,9.43
2019-03-21T09:48:48.412Z,13.68
2019-03-21T09:51:16.480Z,9.83
2019-03-21T09:53:44.658Z,11.12
2019-03-21T09:56:12.734Z,11.05
2019-03-21T09:58:40.923Z,19.48
2019-03-21T10:01:09.038Z,14.68
2019-03-21T10:03:37.176Z,12.88
2019-03-21T10:06:05.403Z,18.00
2019-03-21T10:08:33.489Z,15.20
2019-03-21T10:11:01.667Z,12.28
2019-03-21T10:13:29.716Z,12.98
2019-03-21T10:15:57.825Z,10.72
2019-03-21T10:18:25.955Z,14.38
2019-03-21T10:20:54.020Z,14.47
2019-03-21T10:23:22.122Z,16.60
2019-03-21T10:25:50.272Z,14.13
2019-03-21T10:28:18.378Z,13.95
2019-03-21T10:30:46.512Z,15.38
2019-03-21T10:33:15.004Z,13.95
2019-03-21T10:35:43.160Z,16.97
2019-03-21T10:38:11.661Z,14.70
2019-03-21T10:40:39.796Z,11.93
2019-03-21T10:43:10.318Z,9.53
2019-03-21T10:45:37.813Z,11.33
2019-03-21T10:48:06.425Z,12.88
2019-03-21T10:50:41.963Z,12.68
2019-03-21T10:53:10.049Z,14.23
2019-03-21T10:55:38.693Z,13.22
2019-03-21T10:58:07.451Z,11.22
2019-03-21T11:00:35.604Z,8.43
2019-03-21T11:03:05.422Z,10.40
2019-03-21T11:05:33.526Z,12.03
2019-03-21T11:08:01.679Z,12.30
2019-03-21T11:10:30.829Z,9.58
2019-03-21T11:12:58.940Z,8.75
2019-03-21T11:15:27.323Z,9.70
2019-03-21T11:17:55.405Z,11.48
2019-03-21T11:20:33.198Z,9.00
2019-03-21T11:23:01.553Z,15.25
2019-03-21T11:25:29.825Z,9.18
2019-03-21T11:27:58.157Z,14.45
2019-03-21T11:30:30.435Z,12.47
2019-03-21T11:32:58.729Z,9.65
2019-03-21T11:35:27.091Z,10.72
2019-03-21T11:37:55.208Z,10.03
2019-03-21T11:40:23.374Z,10.88
2019-03-21T11:42:51.465Z,11.53
2019-03-21T11:45:19.597Z,11.65
2019-03-21T11:47:47.706Z,12.35
2019-03-21T11:50:15.854Z,13.98
2019-03-21T11:52:44.038Z,17.17
2019-03-21T11:55:12.219Z,15.18
2019-03-21T11:57:41.451Z,9.75
2019-03-21T12:00:10.813Z,7.87
2019-03-21T12:02:38.933Z,7.67
2019-03-21T12:05:08.318Z,15.72
2019-03-21T12:07:36.399Z,19.07
2019-03-21T12:10:06.051Z,15.63
2019-03-21T12:12:34.129Z,12.15
2019-03-21T12:15:02.318Z,13.53
2019-03-21T12:17:31.532Z,9.48
2019-03-21T12:19:59.684Z,12.28
2019-03-21T12:22:30.306Z,14.55
2019-03-21T12:27:24.810Z,14.40
2019-03-21T12:29:53.503Z,17.07
2019-03-21T12:32:21.575Z,12.63
2019-03-21T12:34:49.674Z,11.40
2019-03-21T12:37:18.103Z,13.58
2019-03-21T12:39:46.179Z,16.55
2019-03-21T12:42:14.321Z,10.63
2019-03-21T12:44:42.373Z,7.15
2019-03-21T12:47:10.451Z,16.40
2019-03-21T12:49:38.536Z,11.50
2019-03-21T12:52:06.632Z,8.60
2019-03-21T12:54:34.716Z,8.13
2019-03-21T12:57:02.889Z,6.60
2019-03-21T12:59:32.037Z,12.82
2019-03-21T13:02:00.130Z,6.35
2019-03-21T13:04:28.205Z,6.75
2019-03-21T13:06:56.331Z,13.25
2019-03-21T13:09:24.531Z,12.85
2019-03-21T13:11:56.463Z,13.98
2019-03-21T13:14:31.128Z,14.00
2019-03-21T13:17:01.322Z,10.40
2019-03-21T13:19:35.117Z,7.05
2019-03-21T13:22:13.203Z,10.95
2019-03-21T13:25:08.956Z,12.13
2019-03-21T13:27:39.285Z,10.45
2019-03-21T13:30:15.028Z,8.63
2019-03-21T13:32:53.900Z,8.55
2019-03-21T13:35:32.637Z,7.62
2019-03-21T13:38:02.975Z,5.28
2019-03-21T13:40:37.743Z,6.72
2019-03-21T13:43:13.489Z,6.12
2019-03-21T13:45:47.826Z,6.25
2019-03-21T13:48:28.485Z,10.20
2019-03-21T13:51:18.271Z,5.75
2019-03-21T13:53:59.192Z,5.33
2019-03-21T13:56:24.637Z,4.25
2019-03-21T13:59:01.064Z,10.88
2019-03-21T14:01:35.834Z,11.35
2019-03-21T14:04:08.988Z,10.23
2019-03-21T14:06:41.229Z,7.12
2019-03-21T14:09:15.479Z,6.12
2019-03-21T14:11:51.436Z,5.15
2019-03-21T14:14:24.135Z,5.12
2019-03-21T14:16:57.095Z,6.40
2019-03-21T14:19:29.540Z,10.10
2019-03-21T14:22:05.447Z,8.83
2019-03-21T14:24:44.694Z,7.28
2019-03-21T14:27:22.353Z,12.85
2019-03-21T14:30:01.569Z,11.25
2019-03-21T14:32:29.438Z,8.58
2019-03-21T14:35:01.352Z,8.95
2019-03-21T14:37:53.449Z,9.00
2019-03-21T14:42:56.148Z,9.58
2019-03-21T14:45:30.162Z,11.15
2019-03-21T14:48:03.347Z,10.03
2019-03-21T14:50:34.872Z,5.20
2019-03-21T14:53:08.746Z,5.95
2019-03-21T14:55:47.490Z,5.87
2019-03-21T14:58:33.048Z,11.53
2019-03-21T15:01:10.208Z,12.50
2019-03-21T15:06:46.817Z,10.23
2019-03-21T15:09:27.429Z,8.53
2019-03-21T15:12:18.133Z,7.40
2019-03-21T15:14:49.082Z,4.97
2019-03-21T15:17:19.006Z,5.42
2019-03-21T15:20:14.554Z,6.67
2019-03-21T15:22:56.943Z,6.25
2019-03-21T15:25:30.574Z,6.12
2019-03-21T15:28:02.702Z,9.08
2019-03-21T15:30:39.257Z,7.65
2019-03-21T15:33:19.601Z,4.53
2019-03-21T15:35:47.766Z,3.77
2019-03-21T15:38:15.869Z,6.47
2019-03-21T15:40:44.007Z,8.00
2019-03-21T15:43:12.273Z,5.12
2019-03-21T15:45:40.413Z,3.90
2019-03-21T15:48:08.519Z,4.10
2019-03-21T15:50:38.117Z,3.58
2019-03-21T15:53:06.780Z,4.37
2019-03-21T15:55:35.214Z,6.03
2019-03-21T15:58:03.506Z,4.17
2019-03-21T16:00:41.410Z,3.40
2019-03-21T16:03:10.061Z,3.58
2019-03-21T16:05:38.382Z,3.00
2019-03-21T16:08:08.694Z,3.25
2019-03-21T16:10:36.564Z,4.40
2019-03-21T16:13:04.796Z,3.72
2019-03-21T16:15:34.061Z,4.50
2019-03-21T16:18:02.148Z,4.12
2019-03-21T16:20:30.356Z,8.00
2019-03-21T16:22:58.518Z,5.72
2019-03-21T16:25:28.256Z,4.25
2019-03-21T16:27:56.475Z,4.83
2019-03-21T16:30:24.718Z,4.08
2019-03-21T16:32:53.647Z,3.33
2019-03-21T16:35:21.758Z,3.55
2019-03-21T16:37:49.920Z,3.05
2019-03-21T16:40:18.963Z,3.80
2019-03-21T16:42:47.430Z,2.87
2019-03-21T16:45:16.256Z,3.50
2019-03-21T16:47:44.428Z,5.20
2019-03-21T16:50:15.325Z,3.55
2019-03-21T16:52:43.505Z,4.03
2019-03-21T16:55:13.177Z,3.95
2019-03-21T16:57:41.435Z,3.50
2019-03-21T17:00:11.173Z,3.62
2019-03-21T17:02:39.881Z,3.92
2019-03-21T17:05:08.162Z,2.83
2019-03-21T17:07:36.286Z,2.55
2019-03-21T17:10:05.526Z,2.90
2019-03-21T17:12:33.658Z,2.77
2019-03-21T17:15:01.759Z,3.42
2019-03-21T17:17:29.949Z,3.12
2019-03-21T17:19:58.166Z,4.15
2019-03-21T17:22:26.394Z,4.20
2019-03-21T17:24:54.527Z,5.10
2019-03-21T17:27:22.596Z,3.33
2019-03-21T17:29:51.831Z,3.72
2019-03-21T17:32:19.962Z,3.47
2019-03-21T17:34:48.104Z,3.12
2019-03-21T17:37:16.288Z,3.25
2019-03-21T17:39:45.842Z,3.70
2019-03-21T17:42:14.436Z,2.95
2019-03-21T17:44:42.507Z,2.77
2019-03-21T17:47:10.594Z,2.80
2019-03-21T17:49:38.675Z,3.70
2019-03-21T17:52:06.811Z,2.60
2019-03-21T17:54:41.564Z,3.00
2019-03-21T17:57:04.746Z,3.52
2019-03-21T17:59:32.882Z,3.35
2019-03-21T18:02:01.127Z,3.17
2019-03-21T18:04:29.213Z,3.02
2019-03-21T18:06:58.476Z,3.17
2019-03-21T18:09:26.707Z,2.62
2019-03-21T18:11:54.789Z,3.40
2019-03-21T18:14:22.851Z,3.10
2019-03-21T18:16:50.914Z,2.80
2019-03-21T18:19:18.997Z,2.62
2019-03-21T18:21:47.078Z,3.05
2019-03-21T18:24:15.187Z,2.70
2019-03-21T18:26:43.252Z,3.47
2019-03-21T18:29:11.740Z,2.95
2019-03-21T18:31:39.926Z,2.98
2019-03-21T18:34:08.011Z,3.02
2019-03-21T18:36:36.082Z,2.62
2019-03-21T18:39:05.702Z,3.02
2019-03-21T18:41:33.777Z,2.65
2019-03-21T18:44:01.950Z,4.28
2019-03-21T18:46:30.081Z,3.35
2019-03-21T18:48:58.197Z,2.65
2019-03-21T18:51:26.419Z,2.50
2019-03-21T18:53:54.983Z,2.08
2019-03-21T18:56:23.069Z,2.62
2019-03-21T18:58:51.795Z,2.75
2019-03-21T19:01:19.884Z,3.27
2019-03-21T19:03:47.960Z,2.60
2019-03-21T19:06:16.041Z,3.47
2019-03-21T19:08:44.205Z,2.65
2019-03-21T19:11:12.358Z,2.00
2019-03-21T19:13:41.392Z,4.75
2019-03-21T19:16:09.476Z,2.65
2019-03-21T19:18:37.557Z,2.58
2019-03-21T19:21:05.615Z,2.70
2019-03-21T19:23:33.706Z,2.33
2019-03-21T19:26:01.857Z,3.37
2019-03-21T19:28:29.947Z,2.72
2019-03-21T19:30:58.021Z,3.30
2019-03-21T19:33:26.085Z,2.40
2019-03-21T19:35:54.208Z,2.90
2019-03-21T19:38:23.895Z,3.05
2019-03-21T19:40:52.168Z,2.60
2019-03-21T19:43:20.248Z,2.30
2019-03-21T19:45:48.296Z,2.27
2019-03-21T19:48:16.363Z,2.30
2019-03-21T19:50:44.835Z,2.42
2019-03-21T19:53:12.905Z,2.67
2019-03-21T19:55:40.959Z,2.08
2019-03-21T19:58:10.664Z,1.87
2019-03-21T20:00:38.728Z,2.20
2019-03-21T20:03:06.909Z,1.67
2019-03-21T20:05:36.057Z,2.10
2019-03-21T20:08:04.258Z,2.12
2019-03-21T20:10:32.514Z,2.83
2019-03-21T20:13:00.709Z,2.75
2019-03-21T20:15:28.812Z,3.00
2019-03-21T20:17:56.890Z,2.95
2019-03-21T20:20:24.969Z,3.12
2019-03-21T20:22:53.094Z,3.15
2019-03-21T20:25:21.214Z,3.00
2019-03-21T20:27:49.646Z,2.42
2019-03-21T20:30:19.277Z,3.02
2019-03-21T20:32:47.353Z,2.40
2019-03-21T20:35:15.448Z,2.90
2019-03-21T20:37:43.544Z,2.92
2019-03-21T20:40:15.416Z,2.70
2019-03-21T20:42:43.556Z,2.95
2019-03-21T20:45:13.000Z,2.72
2019-03-21T20:47:41.398Z,2.90
2019-03-21T20:50:09.684Z,2.50
2019-03-21T20:52:37.782Z,3.02
2019-03-21T20:55:07.007Z,2.65
2019-03-21T20:57:35.087Z,2.83
2019-03-21T21:00:04.819Z,2.72
2019-03-21T21:02:34.508Z,3.20
2019-03-21T21:05:02.731Z,2.50
2019-03-21T21:07:31.412Z,3.80
2019-03-21T21:09:59.625Z,2.62
2019-03-21T21:12:28.320Z,2.70
2019-03-21T21:14:57.528Z,2.12
2019-03-21T21:17:25.644Z,2.50
2019-03-21T21:19:53.776Z,2.45
2019-03-21T21:22:23.420Z,2.55
2019-03-21T21:24:51.572Z,2.27
2019-03-21T21:27:20.077Z,2.65
2019-03-21T21:29:48.448Z,2.30
2019-03-21T21:32:16.763Z,2.52
2019-03-21T21:34:45.058Z,2.85
2019-03-21T21:37:13.221Z,2.40
2019-03-21T21:39:41.358Z,2.70
2019-03-21T21:42:09.496Z,3.00
2019-03-21T21:44:37.604Z,2.98
2019-03-21T21:47:05.745Z,2.10
2019-03-21T21:49:33.827Z,2.55
2019-03-21T21:52:01.897Z,1.98
2019-03-21T21:54:29.993Z,2.30
2019-03-21T21:56:58.475Z,2.15
2019-03-21T21:59:26.607Z,2.00
2019-03-21T22:01:54.757Z,3.02
2019-03-21T22:04:23.846Z,2.52
2019-03-21T22:06:52.008Z,2.42
2019-03-21T22:09:20.082Z,2.87
2019-03-21T22:11:48.156Z,3.33
2019-03-21T22:14:16.534Z,2.83
2019-03-21T22:16:44.632Z,2.30
2019-03-21T22:19:12.753Z,2.05
2019-03-21T22:21:48.797Z,2.35
2019-03-21T22:24:32.079Z,2.83
2019-03-21T22:27:17.125Z,2.10
2019-03-21T22:29:50.853Z,2.72
2019-03-21T22:32:46.836Z,2.20
2019-03-21T22:35:34.121Z,3.25
2019-03-21T22:38:21.345Z,2.10
2019-03-21T22:40:58.435Z,2.10
2019-03-21T22:43:55.168Z,2.50
2019-03-21T22:46:30.627Z,2.27
2019-03-21T22:49:07.148Z,2.40
2019-03-21T22:51:44.960Z,2.50
2019-03-21T22:54:23.930Z,2.37
2019-03-21T22:56:59.675Z,2.10
2019-03-21T22:59:38.573Z,1.62
2019-03-21T23:02:13.091Z,2.05
2019-03-21T23:04:53.603Z,2.20
2019-03-21T23:07:50.143Z,2.35
2019-03-21T23:10:18.481Z,2.62
2019-03-21T23:15:54.433Z,2.22
2019-03-21T23:18:08.239Z,2.15
2019-03-21T23:20:47.324Z,2.17
2019-03-21T23:23:20.420Z,2.95
2019-03-21T23:25:51.538Z,2.58
2019-03-21T23:28:40.720Z,2.37
2019-03-21T23:31:11.868Z,2.17
2019-03-21T23:33:47.329Z,2.42
2019-03-21T23:36:21.126Z,1.62
2019-03-21T23:39:00.263Z,1.80
2019-03-21T23:41:39.863Z,2.22
2019-03-21T23:44:34.179Z,2.85
2019-03-21T23:47:03.878Z,2.25
2019-03-21T23:49:56.223Z,1.72
2019-03-21T23:52:25.888Z,2.58
2019-03-21T23:55:01.703Z,2.27
2019-03-21T23:57:37.970Z,1.95
